Date,TemperatureHighF,TemperatureAvgF,TemperatureLowF,DewpointHighF,DewpointAvgF,DewpointLowF,HumidityHigh,HumidityAvg,HumidityLow,PressureMaxIn,PressureMinIn,WindSpeedMaxMPH,WindSpeedAvgMPH,GustSpeedMaxMPH,PrecipitationSumIn
2012-1-1,58,58,58,52,52,52,82,82,82,29.87,29.86,13,7,13,0.00
2012-1-2,58,41,32,52,30,18,82,64,53,30.33,29.86,12,9,13,0.00
2012-1-3,36,29,18,15,13,11,79,53,37,30.58,30.38,13,2,13,0.00
2012-1-4,51,43,30,32,24,12,52,47,43,30.26,30.09,22,8,22,0.00
2012-1-5,58,49,26,37,33,24,99,57,40,30.25,30.07,16,6,17,0.00
2012-1-6,66,56,37,48,40,31,78,55,36,30.03,29.88,19,8,19,0.00
2012-1-7,58,58,58,54,54,54,88,88,88,29.91,29.91,9,0,9,0.00
2012-1-8,40,40,40,31,31,31,71,71,71,30.16,30.16,3,0,9,0.00
2012-1-9,56,49,42,44,40,35,90,74,51,30.20,30.11,7,1,9,0.01
2012-1-10,55,48,33,40,33,30,91,59,40,30.11,29.85,16,2,16,0.01
2012-1-11,51,48,46,50,47,44,96,96,95,29.60,29.51,16,4,16,0.18
2012-1-12,46,30,24,44,26,21,94,87,78,29.86,29.60,24,7,24,0.03
2012-1-13,24,24,24,18,17,17,77,76,75,30.03,30.00,13,5,14,0.00
2012-1-14,21,21,21,18,17,17,86,85,84,30.19,30.19,0,0,6,0.00
2012-1-15,24,24,22,21,20,20,89,86,85,30.40,30.37,0,0,0,0.01
2012-1-16,49,49,49,35,35,35,57,57,57,30.18,30.17,13,10,13,0.00
2012-1-17,67,57,42,61,51,33,91,80,57,30.17,29.80,31,13,37,0.37
2012-1-18,37,32,25,26,22,18,79,68,59,30.35,30.14,9,2,16,0.00
2012-1-19,52,42,30,34,31,24,79,65,48,30.08,29.94,14,4,14,0.00
2012-1-20,46,40,34,38,34,29,87,78,72,30.04,29.81,12,3,12,0.00
2012-1-21,34,34,34,32,32,32,92,92,92,29.95,29.95,10,5,10,0.07
2012-1-23,50,48,34,41,39,32,92,69,64,29.96,29.75,26,8,26,0.05
2012-1-24,52,45,33,38,35,31,94,70,51,30.29,30.21,7,0,16,0.00
2012-1-25,41,39,36,39,37,33,95,92,89,30.25,30.05,12,2,12,0.19
2012-1-26,55,50,41,54,49,40,96,96,95,29.84,29.63,16,4,16,0.55
2012-1-30,63,55,37,37,32,27,69,43,31,30.29,30.15,25,9,25,0.01
2012-1-31,64,58,51,50,45,36,67,61,56,30.20,30.05,22,7,22,0.00
2012-2-1,69,62,56,60,57,53,92,83,67,30.09,29.98,14,3,16,0.01
2012-2-2,63,56,38,46,40,35,96,59,37,30.31,30.24,11,1,11,0.02
2012-2-3,60,54,42,44,40,36,80,59,47,30.31,30.20,16,2,16,0.00
2012-2-6,52,47,40,41,37,34,95,70,51,30.29,30.19,11,1,11,0.40
2012-2-7,54,48,28,41,37,27,95,67,52,30.29,30.20,9,1,9,0.01
2012-2-8,40,38,37,38,34,31,93,86,78,30.37,30.31,10,4,12,0.03
2012-2-9,38,36,32,29,28,26,83,72,65,30.40,30.27,10,2,10,0.00
2012-2-10,39,37,32,36,32,27,94,83,73,30.16,30.02,13,4,13,0.02
2012-2-11,30,28,26,14,11,9,52,47,43,30.49,30.45,19,8,19,0.02
2012-2-13,40,34,26,30,22,19,91,63,44,30.30,30.03,20,4,20,0.00
2012-2-14,43,41,36,39,37,35,95,86,77,30.06,29.95,14,2,14,0.09
2012-2-15,53,49,40,46,44,38,92,83,76,30.15,30.00,16,3,16,0.00
2012-2-16,54,50,44,47,45,39,92,84,74,30.21,30.08,14,4,15,0.01
2012-2-17,53,46,34,40,36,32,96,72,49,30.25,30.11,13,1,13,0.00
2012-2-21,56,53,48,42,41,38,78,64,56,30.01,29.92,25,9,25,0.10
2012-2-22,65,59,49,55,51,42,85,75,62,29.74,29.52,23,10,23,0.00
2012-2-23,76,68,51,61,56,50,96,68,49,29.50,29.25,32,9,32,0.00
2012-2-24,48,44,37,31,30,27,67,56,49,30.11,29.78,27,9,27,0.00
2012-2-25,47,38,29,25,24,21,77,59,39,30.33,30.17,11,3,22,0.00
2012-2-26,61,46,28,32,26,21,73,49,28,30.35,30.15,11,4,21,0.00
2012-2-27,65,58,45,44,39,31,67,50,40,30.37,30.23,14,3,14,0.00
2012-2-28,71,63,43,54,45,30,61,51,45,30.31,30.03,18,4,18,0.00
2012-2-29,70,66,58,64,58,47,92,75,54,29.81,29.69,31,8,31,0.74
2012-3-1,68,60,39,40,36,32,79,43,27,29.95,29.73,13,2,13,0.00
2012-3-2,80,71,52,66,58,39,92,64,26,29.71,29.39,40,15,43,0.03
2012-3-3,54,42,31,34,29,24,91,62,36,29.97,29.85,9,3,20,0.00
2012-3-4,53,43,28,38,27,22,81,56,38,30.01,29.85,11,4,27,0.00
2012-3-5,49,41,32,34,27,24,73,58,40,30.46,29.97,14,4,27,0.00
2012-3-6,70,62,43,38,32,27,55,33,23,30.36,30.20,26,10,26,0.00
2012-3-7,71,64,53,54,49,37,63,58,52,30.29,30.11,31,12,31,0.00
2012-3-8,58,50,40,56,49,38,95,93,90,30.29,30.01,30,5,30,3.90
2012-3-9,59,52,35,37,32,25,88,48,33,30.49,30.41,19,4,19,0.00
2012-3-10,63,48,35,35,29,25,71,50,25,30.49,30.29,5,1,14,0.00
2012-3-11,65,56,40,57,43,32,91,62,45,30.32,30.12,9,4,19,0.08
2012-3-12,75,68,59,66,62,56,93,83,66,30.12,29.97,27,10,27,0.14
2012-3-13,78,71,62,64,61,58,93,72,52,30.14,30.06,17,5,17,0.00
2012-3-14,82,74,59,69,65,57,93,73,57,30.17,30.05,17,5,17,0.00
2012-3-15,78,68,61,68,62,58,93,82,65,30.18,30.08,22,3,22,0.00
2012-3-16,77,70,59,65,62,58,95,76,62,30.13,30.05,18,5,18,0.72
2012-3-19,82,76,66,64,59,53,75,58,38,30.09,29.92,20,6,20,0.03
2012-3-20,85,80,66,62,58,56,74,49,38,30.03,29.90,24,7,24,0.00
2012-3-21,81,77,68,62,60,56,66,54,48,30.04,29.94,21,8,21,0.00
2012-3-22,68,66,63,64,62,60,94,89,82,30.08,29.95,18,4,18,0.49
2012-3-23,73,68,62,62,58,49,92,72,48,29.93,29.80,25,8,25,0.00
2012-3-26,76,69,52,60,55,51,97,63,46,30.16,29.82,12,1,14,0.13
2012-3-28,82,76,61,64,60,54,77,59,47,30.05,29.93,23,5,23,0.00
2012-3-29,80,72,56,64,58,54,95,65,42,29.99,29.85,13,1,13,0.00
2012-3-30,76,68,59,64,60,56,93,76,62,29.88,29.74,20,4,20,0.00
2012-4-2,86,79,64,72,68,62,93,71,54,29.81,29.72,15,2,15,0.00
2012-4-3,81,75,61,65,62,59,94,67,53,29.93,29.81,12,3,13,0.00
2012-4-4,80,74,60,65,62,58,94,68,53,29.81,29.65,12,3,14,0.00
2012-4-5,67,61,56,63,58,54,95,90,85,29.79,29.65,14,1,14,0.46
2012-4-6,63,56,43,46,42,39,85,61,43,30.13,30.05,15,2,15,0.43
2012-4-10,66,54,44,44,39,33,90,59,33,30.14,30.03,6,2,21,0.00
2012-4-11,56,46,36,36,34,30,91,64,39,30.25,30.10,5,1,17,0.00
2012-4-12,62,48,33,41,35,32,95,65,36,30.31,30.13,5,1,13,0.00
2012-4-13,69,56,42,49,43,39,94,64,36,30.19,30.08,7,2,15,0.00
2012-4-14,79,69,59,60,54,46,69,60,49,30.08,29.93,14,6,27,0.00
2012-4-15,80,72,64,64,61,57,80,69,55,30.02,29.80,13,8,27,0.00
2012-4-16,75,64,57,67,55,42,93,74,47,30.14,29.80,21,4,25,0.24
2012-4-17,60,58,53,52,50,48,85,77,71,30.33,30.23,14,1,14,0.00
2012-4-18,71,65,44,51,46,42,96,54,36,30.20,30.05,17,2,17,0.00
2012-4-19,76,69,45,52,49,44,95,51,38,30.05,29.85,14,1,14,0.00
2012-4-20,76,68,57,62,58,54,91,73,53,29.83,29.75,20,5,20,0.03
2012-4-23,61,54,39,55,35,30,91,49,35,30.05,29.79,19,5,21,0.00
2012-4-24,72,66,48,49,45,41,76,48,36,29.94,29.75,16,5,20,0.00
2012-4-25,80,74,61,65,60,52,72,64,55,29.76,29.61,26,8,26,0.00
2012-4-26,85,79,69,70,66,54,79,64,39,29.83,29.74,20,4,23,0.00
2012-4-27,68,61,52,56,45,37,75,57,47,30.09,29.93,14,3,14,0.00
2012-4-30,86,74,61,70,67,53,93,78,54,30.05,29.91,23,5,23,0.13
2012-5-1,87,74,65,71,67,63,96,80,48,30.00,29.88,24,5,24,0.00
2012-5-2,88,83,69,71,69,66,88,63,53,30.01,29.92,23,6,23,0.00
2012-5-3,79,75,67,70,68,64,90,78,71,30.06,29.97,16,5,16,0.00
2012-5-4,86,80,68,75,72,67,95,78,66,30.01,29.87,18,5,18,0.00
2012-5-5,89,79,69,77,70,64,91,77,59,29.98,29.84,6,2,16,0.00
2012-5-6,89,77,66,72,67,63,94,72,49,29.93,29.82,6,2,18,0.03
2012-5-7,78,74,65,69,66,63,93,78,69,29.90,29.77,12,2,12,0.27
2012-5-8,76,72,65,67,60,55,95,68,51,29.93,29.80,12,2,12,0.17
2012-5-9,75,70,59,55,51,46,87,52,39,29.95,29.86,16,3,16,0.00
2012-5-10,72,68,54,54,51,48,88,57,44,29.99,29.93,12,2,14,0.03
2012-5-11,74,68,49,54,50,46,92,53,42,30.13,30.05,18,2,18,0.00
2012-5-12,67,63,58,62,57,50,94,81,66,30.16,30.10,4,0,11,0.05
2012-5-13,72,64,60,65,61,59,96,92,74,30.10,29.96,4,1,15,0.85
2012-5-14,74,67,59,64,62,58,96,84,70,30.05,29.96,12,1,12,0.00
2012-5-15,81,75,58,65,61,56,97,65,45,30.03,29.94,10,1,10,0.00
2012-5-16,85,79,60,63,58,54,96,51,35,30.01,29.89,13,1,13,0.00
2012-5-17,82,74,63,65,60,54,72,63,52,30.00,29.92,11,1,11,0.00
2012-5-18,86,80,65,68,64,60,91,59,43,30.01,29.91,11,2,11,0.00
2012-5-21,80,75,67,68,66,64,95,74,63,30.04,29.96,15,2,15,0.18
2012-5-22,75,68,62,59,55,51,71,62,53,29.99,29.91,13,2,13,0.00
2012-5-23,78,76,73,60,58,56,59,54,49,29.88,29.87,13,1,13,0.00
2012-5-24,86,81,74,66,62,59,59,54,50,29.84,29.81,16,7,16,0.00
2012-5-25,89,88,88,68,67,66,52,50,48,30.00,29.99,17,6,17,0.00
2012-5-30,84,74,60,69,62,58,95,69,42,29.93,29.83,6,1,18,0.00
2012-5-31,86,70,60,72,62,58,94,80,48,29.86,29.64,7,2,19,0.21
2012-6-1,67,59,51,61,52,49,94,79,55,29.93,29.73,4,2,14,0.01
2012-6-2,78,63,47,60,52,46,95,71,45,30.00,29.85,7,3,19,0.00
2012-6-3,87,74,60,68,62,57,91,69,44,29.93,29.80,3,1,12,0.05
2012-6-4,84,75,66,72,69,64,96,83,67,29.87,29.71,5,2,17,1.06
2012-6-5,79,73,62,68,64,61,95,73,58,29.85,29.76,14,2,14,0.01
2012-6-6,75,67,57,58,56,54,90,69,49,30.02,29.87,4,1,14,0.00
2012-6-7,80,68,54,58,55,52,95,68,41,30.07,29.99,3,1,21,0.00
2012-6-8,85,71,55,62,56,53,93,64,34,30.08,29.93,5,1,13,0.00
2012-6-9,86,74,60,66,62,57,93,68,41,29.98,29.87,8,3,17,0.00
2012-6-10,78,72,64,70,67,62,92,84,77,29.95,29.88,5,2,15,0.00
2012-6-11,79,73,70,72,70,63,95,92,58,29.94,29.83,11,3,11,0.01
2012-6-22,89,80,69,70,65,61,92,64,40,29.96,29.87,3,1,13,0.00
2012-6-23,92,78,62,63,60,58,87,57,32,29.97,29.88,3,1,13,0.00
2012-6-24,96,82,64,66,63,60,88,56,33,29.94,29.84,2,1,11,0.00
2012-6-25,95,83,69,69,66,64,84,60,41,29.85,29.76,3,1,13,0.00
2012-6-26,86,77,70,58,50,46,58,41,26,29.90,29.82,5,2,16,0.00
2012-6-27,96,78,57,61,54,50,81,48,25,29.99,29.89,2,1,11,0.00
2012-6-28,97,90,62,72,64,57,90,44,36,29.99,29.92,15,4,15,0.00
2012-6-29,79,79,78,68,68,68,70,70,69,29.90,29.89,5,0,15,0.00
2012-7-4,102,86,72,76,71,68,90,65,35,29.97,29.88,3,1,15,0.00
2012-7-5,103,89,74,73,70,66,88,58,31,29.97,29.85,2,0,11,0.00
2012-7-6,105,90,79,75,70,66,75,54,29,29.94,29.86,10,2,24,0.01
2012-7-7,102,87,72,75,72,69,91,64,39,29.96,29.85,5,1,13,0.00
2012-7-8,97,84,74,83,74,68,94,74,52,29.98,29.83,9,3,20,0.38
2012-7-9,90,78,73,78,73,71,96,85,57,29.98,29.87,6,1,21,0.96
2012-7-10,82,76,73,75,73,68,96,91,70,29.97,29.89,6,0,12,0.06
2012-7-15,85,81,77,76,75,74,90,83,73,30.05,30.02,0,0,4,3.11
2012-7-16,72,72,72,71,71,71,96,96,96,30.03,30.02,0,0,0,0.00
2012-7-17,93,83,74,77,75,72,95,77,59,29.97,29.86,7,2,17,0.00
2012-7-18,96,84,76,80,76,72,93,77,56,29.96,29.85,6,2,14,0.00
2012-7-19,96,84,71,80,76,69,93,76,56,29.97,29.81,9,3,16,0.00
2012-7-20,90,82,75,79,76,72,94,82,63,29.94,29.86,5,1,12,0.00
2012-7-21,88,80,72,74,72,69,92,76,57,30.01,29.94,2,1,13,0.00
2012-7-22,91,82,70,78,73,68,94,77,59,30.08,30.01,6,1,14,0.00
2012-7-23,94,87,72,77,75,71,96,70,53,30.13,30.00,17,3,17,0.00
2012-7-24,97,86,75,76,73,71,90,68,46,30.04,29.88,19,3,19,0.00
2012-7-25,98,87,76,76,74,72,88,67,44,29.93,29.79,24,4,24,0.00
2012-7-26,95,84,79,77,75,73,84,75,55,29.85,29.79,18,5,18,0.00
2012-7-31,98,93,85,77,74,69,77,53,42,29.90,29.81,13,1,13,0.24
2012-8-3,94,90,84,77,75,70,69,62,55,29.85,29.78,16,5,16,0.00
2012-8-4,91,85,74,80,78,72,96,80,70,30.02,29.87,17,5,17,0.86
2012-8-6,92,85,71,75,70,67,97,63,46,30.08,29.94,12,1,12,0.01
2012-8-7,86,80,71,75,72,67,90,78,66,29.99,29.97,6,0,6,0.00
2012-8-8,98,91,68,72,67,63,93,48,33,29.98,29.84,11,1,11,0.00
2012-8-9,93,81,70,76,70,64,91,70,46,29.89,29.71,19,4,19,1.68
2012-8-10,84,80,72,70,66,61,92,65,49,29.84,29.79,14,3,14,0.15
2012-8-11,84,81,76,62,57,53,57,45,37,30.01,29.83,12,1,12,0.00
2012-8-13,81,74,68,73,69,63,95,86,75,29.92,29.82,17,5,17,0.48
2012-8-14,78,74,68,69,67,65,96,80,67,29.95,29.90,12,3,12,0.01
2012-8-15,87,81,66,67,64,60,90,59,43,30.01,29.91,10,1,10,0.00
2012-8-16,93,86,69,74,71,66,90,64,51,29.99,29.78,17,5,17,0.00
2012-8-17,75,72,67,70,67,64,96,85,69,29.99,29.89,10,1,11,0.03
2012-8-19,82,80,71,60,56,53,66,45,37,29.88,29.86,12,1,12,0.00
2012-8-20,84,78,60,64,56,50,94,50,32,29.97,29.91,12,1,12,0.00
2012-8-21,87,81,60,64,60,56,92,50,38,30.04,29.99,10,1,10,0.00
2012-8-22,94,83,60,65,60,55,93,50,28,30.08,29.96,11,1,11,0.00
2012-8-23,95,86,65,65,62,58,82,47,30,30.06,29.95,10,1,10,0.00
2012-8-24,92,86,65,67,63,58,88,48,34,30.07,29.96,11,1,11,0.00
2012-8-27,93,84,72,75,72,69,89,69,48,30.05,29.93,10,2,14,0.00
2012-8-28,91,85,73,73,65,57,95,54,34,30.02,29.91,19,3,19,0.00
2012-8-29,93,86,67,69,63,56,82,50,31,29.98,29.86,14,3,14,0.00
2012-8-30,91,84,72,74,71,63,75,64,53,29.99,29.92,17,3,17,0.00
2012-8-31,92,86,78,75,74,73,85,68,55,30.06,29.93,26,8,26,0.00
2012-9-1,88,81,74,77,74,70,91,80,67,30.01,29.82,11,7,31,0.46
2012-9-2,79,75,73,74,73,71,95,92,83,29.88,29.77,9,4,19,0.50
2012-9-3,83,77,73,76,74,71,96,90,78,29.85,29.77,4,2,12,0.03
2012-9-4,89,82,72,78,75,70,97,80,62,29.94,29.81,12,1,16,0.00
2012-9-5,93,82,74,78,76,72,96,82,58,29.86,29.74,14,3,14,0.10
2012-9-6,91,83,67,77,74,66,97,75,59,29.94,29.79,10,1,10,0.00
2012-9-7,94,85,66,77,73,65,96,69,54,29.92,29.68,17,5,17,0.66
2012-9-8,74,68,58,70,60,55,96,77,53,29.98,29.74,7,3,18,0.80
2012-9-9,81,66,53,60,56,52,96,73,46,30.08,29.95,5,1,15,0.00
2012-9-10,79,72,55,61,58,54,95,64,46,30.17,30.07,11,1,11,0.00
2012-9-11,84,77,56,63,60,55,96,59,42,30.19,30.10,14,2,14,0.00
2012-9-12,82,77,65,67,63,57,87,63,44,30.24,30.14,14,4,14,0.00
2012-9-13,81,77,65,68,64,62,88,65,57,30.24,30.14,13,2,13,0.00
2012-9-14,81,75,62,70,67,60,95,78,65,30.21,30.16,13,1,13,0.00
2012-9-15,71,66,62,66,63,59,95,88,78,30.23,30.09,3,1,10,0.02
2012-9-16,77,70,65,70,66,63,96,89,76,30.09,29.97,4,0,10,0.35
2012-9-17,71,70,68,70,68,67,96,95,93,29.97,29.76,6,1,10,0.35
2012-9-18,69,65,61,60,52,46,93,63,47,29.97,29.80,21,5,21,0.01
2012-9-19,72,64,45,53,46,43,96,55,37,30.18,30.06,10,1,10,0.00
2012-9-20,82,73,54,57,54,48,82,52,40,30.07,29.94,17,5,17,0.00
2012-9-21,66,63,59,62,58,55,87,84,80,30.03,29.92,18,4,18,0.01
2012-9-24,72,64,42,48,46,40,96,54,40,30.27,30.07,11,3,17,0.01
2012-9-25,83,76,61,69,65,53,77,69,59,30.03,29.91,23,9,23,0.00
2012-9-26,85,79,65,71,67,58,78,67,57,30.06,29.98,14,4,19,0.00
2012-9-27,79,73,66,71,68,64,96,85,69,30.16,30.04,11,1,11,0.52
2012-9-28,73,70,68,70,68,66,97,93,87,30.09,30.00,10,0,10,0.16
2012-10-1,70,60,59,68,58,57,96,96,92,30.01,29.51,16,4,16,0.76
2012-10-2,60,58,55,57,55,54,97,92,83,29.87,29.71,9,1,14,0.04
2012-10-3,76,68,52,58,55,51,96,65,47,30.07,30.01,13,3,13,0.00
2012-10-4,80,73,57,65,62,56,96,70,51,30.23,30.12,13,4,13,0.00
2012-10-5,78,73,59,67,64,58,95,75,63,30.11,29.92,13,3,13,0.00
2012-10-8,54,52,48,44,41,38,85,69,56,30.24,30.22,7,1,7,0.76
2012-10-9,65,52,39,49,44,37,96,76,51,30.15,29.98,5,2,16,0.00
2012-10-10,60,55,41,52,44,37,87,68,44,30.25,30.00,6,2,19,0.00
2012-10-11,61,50,37,49,41,35,94,74,51,30.29,30.19,4,1,11,0.00
2012-10-12,62,57,54,57,55,50,96,91,78,30.31,30.16,3,1,11,2.02
2012-10-13,80,67,56,68,62,55,96,84,57,30.23,29.97,10,5,20,0.00
2012-10-14,74,70,57,66,63,54,92,79,63,29.94,29.79,16,9,30,0.10
2012-10-15,72,64,49,55,51,47,96,64,44,30.02,29.91,12,2,12,0.00
2012-10-16,76,68,50,59,55,48,96,66,51,29.95,29.76,15,5,15,0.00
2012-10-17,77,70,56,58,54,52,89,59,46,29.75,29.53,29,10,29,0.00
2012-10-18,67,61,50,52,45,33,94,60,31,29.74,29.67,28,9,28,0.02
2012-10-19,58,56,49,44,43,39,71,63,56,29.83,29.64,21,3,21,0.00
2012-10-20,65,55,47,51,47,44,93,76,54,29.96,29.82,6,2,16,0.00
2012-10-21,79,63,48,60,52,46,94,71,52,30.05,29.95,8,3,17,0.00
2012-10-22,81,73,59,61,56,53,81,58,39,30.10,30.02,20,6,20,0.00
2012-10-23,80,72,57,62,56,51,81,58,45,30.07,29.96,18,6,18,0.00
2012-10-24,81,74,58,65,61,53,84,64,53,30.08,29.97,16,5,16,0.00
2012-10-25,78,70,60,65,61,56,88,74,61,30.00,29.94,23,7,23,0.00
2012-10-26,46,44,42,45,42,40,95,94,92,30.17,30.12,17,5,19,0.09
2012-10-27,55,46,39,41,38,36,89,75,54,30.17,30.07,7,4,18,0.00
2012-10-28,55,44,37,40,36,34,91,75,46,30.16,30.08,9,4,21,0.00
2012-10-29,55,48,34,36,32,26,89,57,35,30.20,30.06,22,7,23,0.00
2012-10-30,58,50,39,32,30,28,69,48,34,29.93,29.82,26,8,26,0.00
2012-10-31,58,50,38,35,30,24,76,49,30,29.95,29.89,15,4,15,0.00
2012-11-2,64,58,46,44,39,35,81,52,35,30.02,29.94,12,2,12,0.00
2012-11-3,74,54,44,63,43,36,75,66,58,30.06,29.90,9,3,17,0.00
2012-11-4,55,44,37,40,37,34,93,77,50,30.19,30.07,4,2,13,0.00
2012-11-5,53,47,37,43,37,34,89,70,51,30.16,30.02,13,2,13,0.04
2012-11-7,49,47,45,45,42,41,93,84,78,30.12,29.95,14,4,14,0.04
2012-11-8,57,48,32,46,40,30,96,75,56,30.28,30.17,10,1,10,0.00
2012-11-9,69,61,43,48,45,39,87,58,44,30.23,30.09,15,5,15,0.01
2012-11-10,73,61,49,56,47,42,77,61,44,30.21,30.09,10,6,20,0.00
2012-11-11,71,63,56,59,52,45,91,67,55,30.15,29.96,16,10,32,0.01
2012-11-12,60,44,39,58,35,26,95,71,47,30.40,29.96,18,6,25,0.13
2012-11-13,50,42,29,33,29,27,94,61,44,30.54,30.43,14,1,14,0.00
2012-11-14,48,40,31,35,30,27,87,70,56,30.47,30.34,11,2,11,0.00
2012-11-15,54,46,28,38,35,26,94,67,47,30.39,30.29,12,1,12,0.00
2012-11-16,57,49,31,39,34,29,95,58,37,30.44,30.33,12,2,12,0.00
2012-11-19,66,55,37,44,41,35,94,63,42,30.33,30.19,6,1,9,0.00
2012-11-20,68,62,53,52,49,44,84,64,53,30.15,30.03,16,3,16,0.00
2012-11-21,64,51,40,50,45,38,96,83,59,30.25,30.12,4,1,11,0.01
2012-11-22,67,51,34,49,42,32,96,73,45,30.21,30.07,9,3,15,0.00
2012-11-23,57,50,35,51,38,24,91,64,48,30.30,30.07,10,6,22,0.00
2012-11-24,40,32,26,26,23,20,87,70,53,30.35,30.16,5,2,13,0.00
2012-11-25,58,41,27,33,28,22,81,61,39,30.15,29.99,11,3,19,0.00
2012-11-26,59,52,43,43,39,31,91,62,51,30.11,30.04,14,2,14,0.00
2012-11-27,44,38,31,36,33,28,91,82,71,30.37,30.31,12,3,14,0.00
2012-11-29,59,50,30,38,35,28,95,59,40,30.39,30.24,14,4,14,0.00
2012-11-30,63,56,40,46,43,34,83,64,50,30.26,30.14,19,6,19,0.00
2012-12-3,73,68,56,63,59,44,89,74,58,30.18,30.04,21,8,21,0.00
2012-12-4,68,63,55,63,60,54,95,90,85,30.16,30.01,20,5,20,0.03
2012-12-5,61,55,42,54,41,36,94,60,43,30.33,30.16,13,3,13,0.00
2012-12-6,55,51,45,51,47,39,93,86,77,30.08,29.97,9,1,9,0.01
2012-12-7,61,59,56,59,57,55,96,95,93,29.93,29.83,15,5,15,0.01
2012-12-11,42,34,26,29,26,23,92,74,55,30.29,30.16,13,1,13,4.22
2012-12-12,48,34,23,32,26,21,95,77,43,30.39,30.28,7,0,7,0.00
2012-12-13,27,25,24,25,23,22,93,92,91,30.41,30.35,0,0,0,0.00
2012-12-14,58,49,31,39,34,24,79,57,42,30.32,30.14,13,2,13,0.00
2012-12-17,63,53,45,56,48,40,94,82,60,29.81,29.56,20,6,25,0.03
2012-12-18,59,47,34,43,40,33,95,76,52,29.91,29.81,18,4,19,0.00
2012-12-19,63,52,36,53,46,35,95,81,68,29.99,29.84,12,2,12,0.00
2012-12-27,34,32,30,30,28,27,91,87,80,30.22,30.10,4,2,10,0.05
2012-12-28,39,36,32,37,33,29,96,91,84,30.10,29.79,6,2,13,0.45
2012-12-29,35,32,24,34,29,21,95,89,78,30.40,29.83,9,6,18,0.01
2012-12-30,40,30,20,30,25,18,94,82,64,30.55,30.37,5,1,11,0.00
2012-12-31,38,34,31,31,29,26,88,79,74,30.35,30.23,8,3,14,0.00